Time;durP1;ratioP1;P1;durP2;ratioP2;P2;SDS_P1;SDS_P2;PMS_P1;PMS_P2;Temp;Humidity;BMP_temperature;BMP_pressure;BME280_temperature;BME280_humidity;BME280_pressure;Samples;Min_cycle;Max_cycle;Signal;HPM_P1;HPM_P2
2023/08/06 00:04:42;;;;;;;4.88;2.92;;;16.70;99.90;;;;;;10172440;29;20280;-84
2023/08/06 00:09:44;;;;;;;3.20;2.40;;;16.40;99.90;;;;;;10172727;29;20941;-85
2023/08/06 00:14:51;;;;;;;4.07;2.60;;;16.30;99.90;;;;;;10177256;29;20315;-84
2023/08/06 00:19:53;;;;;;;2.90;2.50;;;16.30;99.90;;;;;;10155133;29;20208;-85
2023/08/06 00:24:57;;;;;;;2.75;2.55;;;16.20;99.90;;;;;;10171375;29;20255;-84
2023/08/06 00:30:00;;;;;;;2.58;2.38;;;16.20;99.90;;;;;;10154673;29;20255;-84
2023/08/06 00:35:04;;;;;;;2.58;2.30;;;16.30;99.90;;;;;;10171162;29;20251;-84
2023/08/06 00:40:07;;;;;;;3.78;2.50;;;16.40;99.90;;;;;;10153778;29;20294;-85
2023/08/06 00:45:10;;;;;;;3.28;2.83;;;16.40;99.90;;;;;;10153474;29;20248;-84
2023/08/06 00:50:13;;;;;;;3.00;2.65;;;16.40;99.90;;;;;;10153024;29;20248;-84
2023/08/06 00:55:15;;;;;;;4.13;2.67;;;16.50;99.90;;;;;;10169469;29;20255;-84
2023/08/06 01:00:20;;;;;;;7.97;3.60;;;16.40;99.90;;;;;;10169588;29;20686;-84
2023/08/06 01:05:23;;;;;;;5.93;3.05;;;16.30;99.90;;;;;;10169875;29;20264;-85
2023/08/06 01:10:53;;;;;;;2.80;2.55;;;16.40;99.90;;;;;;10168900;29;20695;-84
2023/08/06 01:15:59;;;;;;;3.30;2.97;;;16.60;99.90;;;;;;10169614;29;20318;-85
2023/08/06 01:21:02;;;;;;;2.78;2.55;;;16.30;99.90;;;;;;10153937;29;20255;-85
2023/08/06 01:26:15;;;;;;;3.10;2.47;;;16.40;99.90;;;;;;10152607;29;20207;-85
2023/08/06 01:31:26;;;;;;;3.58;2.30;;;16.50;99.90;;;;;;10184401;29;20680;-85
2023/08/06 01:36:30;;;;;;;2.33;2.13;;;16.50;99.90;;;;;;10151016;29;20804;-85
2023/08/06 01:41:35;;;;;;;2.40;2.20;;;16.60;99.90;;;;;;10124744;29;20271;-84
2023/08/06 01:46:38;;;;;;;3.40;1.98;;;16.70;99.90;;;;;;10152671;29;20603;-84
2023/08/06 01:51:42;;;;;;;2.05;1.65;;;16.50;99.90;;;;;;10151030;29;20246;-85
2023/08/06 01:56:44;;;;;;;2.10;1.90;;;16.40;99.90;;;;;;10149964;29;20622;-85
2023/08/06 02:01:47;;;;;;;2.75;2.25;;;16.30;99.90;;;;;;10157967;29;20203;-85
2023/08/06 02:06:50;;;;;;;4.15;1.55;;;16.40;99.90;;;;;;10176931;29;20231;-85
2023/08/06 02:11:52;;;;;;;1.70;1.60;;;16.50;99.90;;;;;;10151435;29;20204;-85
2023/08/06 02:16:55;;;;;;;1.38;1.27;;;15.90;99.90;;;;;;10181502;29;20286;-85
2023/08/06 02:22:02;;;;;;;1.35;1.25;;;16.20;99.90;;;;;;10189663;29;20238;-84
2023/08/06 02:27:04;;;;;;;1.48;1.38;;;16.10;99.90;;;;;;10203606;29;20227;-85
2023/08/06 02:32:07;;;;;;;2.00;1.50;;;16.10;99.90;;;;;;10149497;29;20258;-85
2023/08/06 02:37:10;;;;;;;1.60;1.33;;;16.20;99.90;;;;;;10150527;29;20618;-85
2023/08/06 02:42:13;;;;;;;1.45;1.35;;;16.10;99.90;;;;;;10134807;29;20303;-84
2023/08/06 02:47:16;;;;;;;1.48;1.38;;;16.00;99.90;;;;;;10168654;29;20403;-85
2023/08/06 02:52:19;;;;;;;2.85;1.95;;;16.10;99.90;;;;;;10150263;29;20254;-85
2023/08/06 02:57:22;;;;;;;0.93;0.93;;;16.20;99.90;;;;;;10149748;29;20302;-84
2023/08/06 03:02:27;;;;;;;2.08;1.20;;;15.90;99.90;;;;;;10148486;29;20629;-85
2023/08/06 03:07:37;;;;;;;1.83;1.00;;;16.00;99.90;;;;;;10149395;29;20242;-85
2023/08/06 03:12:47;;;;;;;1.75;1.20;;;15.90;99.90;;;;;;10149632;29;20263;-85
2023/08/06 03:17:50;;;;;;;1.30;1.20;;;15.80;99.90;;;;;;10155197;29;20393;-84
2023/08/06 03:22:55;;;;;;;1.70;0.90;;;15.90;99.90;;;;;;10156010;29;20326;-84
2023/08/06 03:27:58;;;;;;;1.55;1.45;;;15.60;99.90;;;;;;10173709;29;20239;-84
2023/08/06 03:33:02;;;;;;;1.20;1.10;;;15.80;99.90;;;;;;10172298;29;20259;-84
2023/08/06 03:38:04;;;;;;;1.00;1.00;;;15.80;99.90;;;;;;10156024;29;20298;-85
2023/08/06 03:43:07;;;;;;;3.28;0.90;;;15.70;99.90;;;;;;10155295;29;20313;-85
2023/08/06 03:48:11;;;;;;;1.45;0.95;;;15.70;99.90;;;;;;10154563;29;20243;-85
2023/08/06 03:53:14;;;;;;;2.55;1.33;;;15.80;99.90;;;;;;10154629;29;20263;-85
2023/08/06 03:58:16;;;;;;;0.90;0.90;;;15.80;99.90;;;;;;10171995;29;20306;-85
2023/08/06 04:03:19;;;;;;;0.90;0.90;;;16.10;99.90;;;;;;10153686;29;20247;-85
2023/08/06 04:08:22;;;;;;;1.25;1.10;;;15.80;99.90;;;;;;10153611;29;20660;-85
2023/08/06 04:13:26;;;;;;;1.42;1.33;;;15.60;99.90;;;;;;10154775;29;20267;-86
2023/08/06 04:18:29;;;;;;;1.63;0.90;;;15.70;99.90;;;;;;10153100;29;20249;-85
2023/08/06 04:23:31;;;;;;;1.67;0.90;;;15.70;99.90;;;;;;10170384;29;20322;-85
2023/08/06 04:28:38;;;;;;;0.98;0.98;;;15.70;99.90;;;;;;10152656;29;20243;-86
2023/08/06 04:33:41;;;;;;;1.10;1.00;;;15.50;99.90;;;;;;10171101;29;20259;-85
2023/08/06 04:38:47;;;;;;;1.20;0.90;;;15.90;99.90;;;;;;10153669;29;20282;-85
2023/08/06 04:43:50;;;;;;;0.90;0.70;;;15.60;99.90;;;;;;10153260;29;20251;-85
2023/08/06 04:48:53;;;;;;;1.10;1.00;;;15.50;99.90;;;;;;10153857;29;20247;-85
2023/08/06 04:53:57;;;;;;;3.05;0.70;;;15.90;99.90;;;;;;10152690;29;20259;-85
2023/08/06 04:59:00;;;;;;;1.30;1.10;;;16.10;99.90;;;;;;10168242;29;20227;-85
2023/08/06 05:04:03;;;;;;;1.65;1.00;;;16.00;99.90;;;;;;10160603;29;20227;-85
2023/08/06 05:09:06;;;;;;;3.22;1.33;;;16.00;99.90;;;;;;10181658;29;20652;-85
2023/08/06 05:14:08;;;;;;;1.40;1.27;;;16.50;99.90;;;;;;10152857;29;20259;-85
2023/08/06 05:19:11;;;;;;;0.73;0.73;;;16.80;99.90;;;;;;10172800;29;20239;-85
2023/08/06 05:24:13;;;;;;;1.27;0.65;;;16.70;99.90;;;;;;10167688;29;20258;-85
2023/08/06 05:29:16;;;;;;;1.75;0.75;;;16.10;99.90;;;;;;10162181;29;20223;-85
2023/08/06 05:34:19;;;;;;;1.30;0.63;;;16.10;99.90;;;;;;10150092;29;20263;-84
2023/08/06 05:39:22;;;;;;;1.15;1.00;;;16.00;99.90;;;;;;10166993;29;20274;-84
2023/08/06 05:44:24;;;;;;;0.90;0.90;;;15.70;99.90;;;;;;10165357;29;20663;-85
2023/08/06 05:49:27;;;;;;;0.75;0.60;;;16.00;99.90;;;;;;10166668;29;20302;-83
2023/08/06 05:54:29;;;;;;;0.63;0.57;;;15.90;99.90;;;;;;10163878;29;20318;-84
2023/08/06 05:59:32;;;;;;;0.40;0.40;;;15.80;99.90;;;;;;10151202;29;20243;-85
2023/08/06 06:04:35;;;;;;;0.50;0.40;;;15.80;99.90;;;;;;10166055;29;20271;-84
2023/08/06 06:09:39;;;;;;;1.00;0.90;;;15.60;99.90;;;;;;10151150;29;20236;-84
2023/08/06 06:14:42;;;;;;;0.88;0.88;;;16.20;99.90;;;;;;10150404;29;20259;-84
2023/08/06 06:19:44;;;;;;;0.93;0.20;;;16.40;99.90;;;;;;10166651;29;20227;-84
2023/08/06 06:24:47;;;;;;;0.70;0.70;;;15.90;99.90;;;;;;10150708;29;20619;-84
2023/08/06 06:29:49;;;;;;;0.52;0.25;;;15.90;99.90;;;;;;10166898;29;20306;-84
2023/08/06 06:34:52;;;;;;;0.75;0.20;;;15.40;99.90;;;;;;10168028;29;20267;-85
2023/08/06 06:39:54;;;;;;;1.75;0.35;;;15.30;99.90;;;;;;10150032;29;20227;-84
2023/08/06 06:44:57;;;;;;;0.30;0.30;;;15.30;99.90;;;;;;10150228;29;20212;-84
2023/08/06 06:49:59;;;;;;;0.55;0.55;;;15.40;99.90;;;;;;10174849;29;20615;-84
2023/08/06 06:55:02;;;;;;;0.50;0.40;;;15.60;99.90;;;;;;10174254;29;20291;-84
2023/08/06 07:00:05;;;;;;;0.30;0.30;;;15.90;99.90;;;;;;10173221;29;20620;-85
2023/08/06 07:05:11;;;;;;;0.70;0.47;;;16.00;99.90;;;;;;10173695;29;20234;-85
2023/08/06 07:10:16;;;;;;;0.43;0.40;;;15.70;99.90;;;;;;10173579;29;20200;-84
2023/08/06 07:15:18;;;;;;;0.35;0.35;;;15.60;99.90;;;;;;10171676;29;20251;-84
2023/08/06 07:20:21;;;;;;;0.60;0.40;;;15.90;99.90;;;;;;10170807;29;20227;-84
2023/08/06 07:25:23;;;;;;;1.65;0.43;;;15.80;99.90;;;;;;10170939;29;20263;-88
2023/08/06 07:30:26;;;;;;;0.77;0.70;;;15.90;99.90;;;;;;10164412;29;20251;-88
2023/08/06 07:35:29;;;;;;;1.95;0.63;;;15.60;99.90;;;;;;10152519;29;20706;-87
2023/08/06 07:40:32;;;;;;;1.73;0.20;;;15.50;99.90;;;;;;10154341;29;20306;-87
2023/08/06 07:45:38;;;;;;;1.10;0.95;;;15.90;99.90;;;;;;10172215;29;20303;-85
2023/08/06 07:50:41;;;;;;;3.10;0.20;;;15.80;99.90;;;;;;10141116;29;20710;-85
2023/08/06 07:55:43;;;;;;;2.15;0.10;;;15.70;99.90;;;;;;10172645;29;20255;-87
2023/08/06 08:00:47;;;;;;;0.00;0.00;;;15.40;99.90;;;;;;10132251;23;20255;-81
2023/08/06 08:05:54;;;;;;;0.10;0.10;;;14.70;99.90;;;;;;10115371;29;20220;-81
2023/08/06 08:10:58;;;;;;;0.20;0.10;;;14.50;99.90;;;;;;10115315;29;20312;-81
2023/08/06 08:16:02;;;;;;;0.15;0.10;;;14.40;99.90;;;;;;10126409;29;20996;-81
2023/08/06 08:21:04;;;;;;;1.13;0.20;;;14.30;99.90;;;;;;10141302;29;20256;-81
2023/08/06 08:26:07;;;;;;;0.20;0.20;;;14.30;99.90;;;;;;10131847;29;20683;-81
2023/08/06 08:31:11;;;;;;;0.80;0.30;;;14.40;99.90;;;;;;10077461;29;20311;-82
2023/08/06 08:36:13;;;;;;;0.20;0.10;;;14.60;99.90;;;;;;10091726;29;20263;-82
2023/08/06 08:41:16;;;;;;;0.00;0.00;;;14.60;99.90;;;;;;10131022;29;20921;-82
2023/08/06 08:46:19;;;;;;;0.73;0.10;;;14.60;99.90;;;;;;10124230;29;20303;-82
2023/08/06 08:51:24;;;;;;;0.00;0.00;;;14.60;99.90;;;;;;10115584;29;20235;-82
2023/08/06 08:56:26;;;;;;;0.15;0.13;;;14.50;99.90;;;;;;10114311;29;20256;-82
2023/08/06 09:01:30;;;;;;;0.28;0.20;;;14.60;99.90;;;;;;10130978;29;20272;-82
2023/08/06 09:06:36;;;;;;;0.20;0.10;;;14.50;99.90;;;;;;10130792;29;20701;-82
2023/08/06 09:11:43;;;;;;;0.70;0.20;;;14.40;99.90;;;;;;10129240;29;20232;-82
2023/08/06 09:16:47;;;;;;;0.97;0.20;;;14.40;99.90;;;;;;10094893;29;20263;-82
2023/08/06 09:21:51;;;;;;;0.20;0.20;;;14.30;99.90;;;;;;10130662;29;20243;-82
2023/08/06 09:26:55;;;;;;;0.40;0.20;;;14.40;99.90;;;;;;10112832;29;20251;-82
2023/08/06 09:31:57;;;;;;;1.87;0.10;;;14.40;99.90;;;;;;10128047;29;20279;-82
2023/08/06 09:37:01;;;;;;;0.37;0.10;;;14.40;99.90;;;;;;10117227;29;20323;-81
2023/08/06 09:42:04;;;;;;;0.57;0.57;;;14.40;99.90;;;;;;10129371;29;20287;-81
2023/08/06 09:47:07;;;;;;;0.23;0.20;;;14.40;99.90;;;;;;10127559;29;20248;-81
2023/08/06 09:52:12;;;;;;;0.20;0.20;;;14.40;99.90;;;;;;10128790;29;20313;-82
2023/08/06 09:57:15;;;;;;;0.80;0.70;;;14.40;99.90;;;;;;10127481;29;20272;-82
2023/08/06 10:02:21;;;;;;;0.37;0.30;;;14.40;99.90;;;;;;10128517;29;20289;-81
2023/08/06 10:07:42;;;;;;;1.80;0.30;;;14.40;99.90;;;;;;10111395;29;20307;-82
2023/08/06 10:12:48;;;;;;;0.43;0.10;;;14.50;99.90;;;;;;10096107;29;20248;-82
2023/08/06 10:17:55;;;;;;;0.37;0.10;;;14.60;99.90;;;;;;10111133;29;21068;-83
2023/08/06 10:23:06;;;;;;;0.20;0.10;;;14.50;99.90;;;;;;10112604;29;20672;-83
2023/08/06 10:28:11;;;;;;;0.10;0.10;;;14.40;99.90;;;;;;10135828;29;20803;-83
2023/08/06 10:33:15;;;;;;;1.07;0.40;;;14.40;99.90;;;;;;10119075;29;20272;-83
2023/08/06 10:38:22;;;;;;;0.10;0.10;;;14.40;99.90;;;;;;10118793;29;20323;-83
2023/08/06 10:43:27;;;;;;;3.67;0.40;;;14.30;99.90;;;;;;10134858;29;20240;-83
2023/08/06 10:48:37;;;;;;;6.33;0.40;;;14.30;99.90;;;;;;10134854;29;20267;-83
2023/08/06 10:53:50;;;;;;;0.80;0.40;;;14.30;99.90;;;;;;10134861;29;20232;-83
2023/08/06 10:58:56;;;;;;;0.60;0.20;;;14.30;99.90;;;;;;10134450;29;20260;-83
2023/08/06 11:04:02;;;;;;;0.70;0.10;;;14.30;99.90;;;;;;10134488;29;20272;-83
2023/08/06 11:09:05;;;;;;;0.83;0.10;;;14.30;99.90;;;;;;10120681;29;20246;-83
2023/08/06 11:14:15;;;;;;;0.57;0.30;;;14.30;99.90;;;;;;10101001;29;20752;-83
2023/08/06 11:19:17;;;;;;;0.10;0.10;;;14.40;99.90;;;;;;10134021;29;20232;-83
2023/08/06 11:24:20;;;;;;;3.90;0.40;;;14.40;99.90;;;;;;10133757;29;20240;-84
2023/08/06 11:29:23;;;;;;;3.27;0.50;;;14.30;99.90;;;;;;10134617;29;20799;-84
2023/08/06 11:34:25;;;;;;;1.30;0.30;;;14.20;99.90;;;;;;10133551;29;20271;-84
2023/08/06 11:39:28;;;;;;;0.23;0.20;;;14.50;99.90;;;;;;10133605;29;20239;-84
2023/08/06 11:44:36;;;;;;;2.78;0.30;;;14.60;99.90;;;;;;9440514;29;10000732;-84
2023/08/06 11:49:49;;;;;;;0.20;0.10;;;14.70;99.90;;;;;;10129633;29;20683;-84
2023/08/06 11:55:10;;;;;;;0.77;0.32;;;14.60;99.90;;;;;;10129075;29;20263;-83
2023/08/06 12:00:13;;;;;;;7.15;0.52;;;14.80;99.90;;;;;;10128961;29;20263;-84
2023/08/06 12:05:20;;;;;;;0.15;0.10;;;14.90;99.90;;;;;;10112678;29;20252;-84
2023/08/06 12:10:25;;;;;;;1.00;0.28;;;14.80;99.90;;;;;;10129294;29;20243;-84
2023/08/06 12:15:28;;;;;;;2.05;0.10;;;14.90;99.90;;;;;;10128955;29;20264;-83
2023/08/06 12:20:33;;;;;;;0.60;0.10;;;14.80;99.90;;;;;;10132456;29;20231;-83
2023/08/06 12:25:36;;;;;;;0.23;0.20;;;14.60;99.90;;;;;;10132226;29;20622;-82
2023/08/06 12:30:41;;;;;;;2.43;0.10;;;14.60;99.90;;;;;;10127891;29;20244;-83
2023/08/06 12:35:44;;;;;;;0.57;0.10;;;14.60;99.90;;;;;;10112753;29;20801;-83
2023/08/06 12:40:47;;;;;;;0.70;0.37;;;14.50;99.90;;;;;;10128197;29;20288;-82
2023/08/06 12:45:49;;;;;;;0.37;0.10;;;14.50;99.90;;;;;;10128045;29;20239;-82
2023/08/06 12:50:52;;;;;;;0.57;0.30;;;14.60;99.90;;;;;;10128958;29;20228;-82
2023/08/06 12:55:54;;;;;;;0.30;0.20;;;14.70;99.90;;;;;;10126881;29;20685;-83
2023/08/06 13:00:57;;;;;;;0.93;0.20;;;14.80;99.90;;;;;;10126361;29;20316;-83
2023/08/06 13:06:00;;;;;;;0.20;0.10;;;14.80;99.90;;;;;;10127643;29;20235;-83
2023/08/06 13:11:02;;;;;;;0.10;0.10;;;14.70;99.90;;;;;;10128682;29;20307;-83
2023/08/06 13:16:04;;;;;;;0.53;0.30;;;14.70;99.90;;;;;;10125783;29;20318;-83
2023/08/06 13:21:07;;;;;;;0.20;0.20;;;14.60;99.90;;;;;;10127090;29;20246;-83
2023/08/06 13:26:09;;;;;;;0.10;0.10;;;14.60;99.90;;;;;;10088586;29;20245;-83
2023/08/06 13:31:12;;;;;;;0.10;0.10;;;14.50;99.90;;;;;;10087824;29;20251;-83
2023/08/06 13:36:15;;;;;;;0.30;0.10;;;14.50;99.90;;;;;;10098926;29;20315;-83
2023/08/06 13:41:18;;;;;;;0.47;0.20;;;14.60;99.90;;;;;;10124618;29;20266;-82
2023/08/06 13:46:20;;;;;;;0.20;0.10;;;14.60;99.90;;;;;;10109221;29;20733;-83
2023/08/06 13:51:24;;;;;;;0.10;0.10;;;15.10;99.90;;;;;;10126737;29;20299;-83
2023/08/06 13:56:27;;;;;;;0.17;0.17;;;15.20;99.90;;;;;;10125740;29;20641;-83
2023/08/06 14:01:31;;;;;;;0.00;0.00;;;15.40;99.90;;;;;;10125575;29;20541;-83
2023/08/06 14:06:52;;;;;;;0.10;0.10;;;15.50;99.90;;;;;;10108143;29;20289;-83
2023/08/06 14:11:55;;;;;;;0.10;0.10;;;15.70;99.90;;;;;;10125629;29;20268;-83
2023/08/06 14:16:57;;;;;;;0.10;0.00;;;15.80;99.90;;;;;;10109170;29;20921;-83
2023/08/06 14:22:01;;;;;;;0.30;0.10;;;15.70;99.90;;;;;;10124183;29;20300;-83
2023/08/06 14:27:05;;;;;;;1.45;0.10;;;15.50;99.90;;;;;;10126075;29;20235;-83
2023/08/06 14:32:08;;;;;;;0.55;0.10;;;15.80;99.90;;;;;;10124975;29;20244;-83
2023/08/06 14:37:11;;;;;;;0.13;0.10;;;16.20;99.90;;;;;;10098150;29;20255;-83
2023/08/06 14:42:13;;;;;;;3.92;0.63;;;16.00;99.90;;;;;;10127371;29;20243;-83
2023/08/06 14:47:16;;;;;;;0.10;0.10;;;16.00;99.90;;;;;;10128139;29;20709;-83
2023/08/06 14:52:18;;;;;;;0.38;0.08;;;15.60;99.90;;;;;;10127564;29;20295;-83
2023/08/06 14:57:27;;;;;;;0.20;0.10;;;15.70;99.90;;;;;;10126647;29;20276;-82
2023/08/06 15:02:30;;;;;;;0.80;0.10;;;15.10;99.90;;;;;;10128225;29;20287;-83
2023/08/06 15:07:35;;;;;;;0.93;0.20;;;14.90;99.90;;;;;;10102849;29;20237;-83
2023/08/06 15:12:39;;;;;;;0.30;0.10;;;14.70;99.90;;;;;;10115626;29;20269;-83
2023/08/06 15:17:41;;;;;;;1.70;0.13;;;14.60;99.90;;;;;;10117838;29;20263;-82
2023/08/06 15:22:44;;;;;;;0.53;0.20;;;14.60;99.90;;;;;;10134664;29;20230;-83
2023/08/06 15:27:46;;;;;;;0.40;0.33;;;14.60;99.90;;;;;;10133608;29;20245;-82
2023/08/06 15:32:49;;;;;;;0.43;0.40;;;14.60;99.90;;;;;;10132447;29;20239;-82
2023/08/06 15:37:52;;;;;;;0.47;0.17;;;14.50;99.90;;;;;;10132593;29;20271;-83
2023/08/06 15:42:54;;;;;;;0.17;0.10;;;14.60;99.90;;;;;;10132759;29;20327;-83
2023/08/06 15:47:57;;;;;;;1.00;0.63;;;14.60;99.90;;;;;;10132886;29;20243;-83
2023/08/06 15:53:00;;;;;;;0.30;0.20;;;14.60;99.90;;;;;;10133514;29;20243;-82
2023/08/06 15:58:02;;;;;;;2.30;0.87;;;14.60;99.90;;;;;;10132632;29;20668;-83
2023/08/06 16:03:05;;;;;;;0.73;0.52;;;14.80;99.90;;;;;;9769785;29;10000362;-83
2023/08/06 16:08:07;;;;;;;1.65;0.85;;;14.90;99.90;;;;;;10127849;29;20648;-83
2023/08/06 16:13:10;;;;;;;1.45;0.65;;;15.10;99.90;;;;;;10127866;29;20252;-83
2023/08/06 16:18:12;;;;;;;0.90;0.50;;;15.10;99.90;;;;;;10129570;29;20259;-83
2023/08/06 16:23:15;;;;;;;1.17;0.20;;;14.80;99.90;;;;;;10126181;29;20233;-83
2023/08/06 16:28:17;;;;;;;0.50;0.40;;;14.60;99.90;;;;;;10089448;29;20646;-83
2023/08/06 16:33:20;;;;;;;0.97;0.80;;;14.50;99.90;;;;;;10109238;29;20240;-83
2023/08/06 16:38:22;;;;;;;1.13;0.93;;;14.70;99.90;;;;;;10128597;29;20288;-83
2023/08/06 16:43:25;;;;;;;1.30;0.47;;;14.60;99.90;;;;;;10128200;29;20236;-83
2023/08/06 16:48:27;;;;;;;0.50;0.40;;;14.40;99.90;;;;;;10126178;29;20240;-83
2023/08/06 16:53:30;;;;;;;0.57;0.30;;;14.40;99.90;;;;;;10127461;29;20244;-83
2023/08/06 16:58:32;;;;;;;2.97;0.80;;;14.40;99.90;;;;;;10126183;29;20676;-83
2023/08/06 17:03:35;;;;;;;0.60;0.40;;;14.30;99.90;;;;;;10126186;29;20315;-84
2023/08/06 17:08:38;;;;;;;0.80;0.33;;;14.20;99.90;;;;;;10115576;29;20247;-83
2023/08/06 17:13:41;;;;;;;0.60;0.57;;;14.10;99.90;;;;;;10126583;29;20235;-83
2023/08/06 17:18:43;;;;;;;3.33;1.17;;;14.20;99.90;;;;;;10109765;29;20255;-83
2023/08/06 17:23:46;;;;;;;0.50;0.40;;;14.10;99.90;;;;;;10124708;29;20244;-83
2023/08/06 17:28:49;;;;;;;1.80;0.50;;;14.00;99.90;;;;;;10126803;29;20793;-83
2023/08/06 17:33:51;;;;;;;0.60;0.50;;;13.90;99.90;;;;;;10111840;29;20240;-83
2023/08/06 17:38:54;;;;;;;1.17;0.83;;;13.80;99.90;;;;;;10128318;29;20292;-83
2023/08/06 17:43:56;;;;;;;3.37;1.83;;;13.80;99.90;;;;;;10126956;29;20306;-83
2023/08/06 17:48:59;;;;;;;1.47;0.63;;;13.80;99.90;;;;;;10129239;29;20272;-82
2023/08/06 17:54:02;;;;;;;0.77;0.57;;;14.00;99.90;;;;;;10105077;29;20248;-82
2023/08/06 17:59:04;;;;;;;2.90;1.00;;;14.10;99.90;;;;;;10115737;29;20711;-82
2023/08/06 18:04:07;;;;;;;0.77;0.50;;;14.20;99.90;;;;;;10127167;29;20319;-82
2023/08/06 18:09:10;;;;;;;1.63;0.50;;;14.00;99.90;;;;;;10125330;29;20244;-83
2023/08/06 18:14:12;;;;;;;1.47;0.90;;;13.80;99.90;;;;;;10125222;29;20651;-82
2023/08/06 18:19:15;;;;;;;1.43;0.90;;;13.80;99.90;;;;;;10126874;29;20263;-83
2023/08/06 18:24:18;;;;;;;5.33;1.20;;;13.80;99.90;;;;;;10125938;29;20738;-83
2023/08/06 18:29:20;;;;;;;2.00;0.70;;;13.90;99.90;;;;;;10117967;29;20244;-83
2023/08/06 18:34:23;;;;;;;1.70;0.60;;;13.90;99.90;;;;;;10112702;29;20232;-84
2023/08/06 18:39:25;;;;;;;0.63;0.53;;;13.80;99.90;;;;;;10125450;29;20260;-84
2023/08/06 18:44:29;;;;;;;1.57;0.90;;;13.60;99.90;;;;;;10113963;29;20236;-84
2023/08/06 18:49:31;;;;;;;0.80;0.50;;;13.60;99.90;;;;;;10135205;29;20235;-84
2023/08/06 18:54:34;;;;;;;1.00;0.70;;;13.70;99.90;;;;;;10134853;29;20240;-84
2023/08/06 18:59:37;;;;;;;0.87;0.70;;;13.70;99.90;;;;;;10115051;29;20327;-83
2023/08/06 19:04:39;;;;;;;1.27;0.57;;;13.80;99.90;;;;;;10108403;29;20228;-84
2023/08/06 19:09:45;;;;;;;1.20;0.70;;;13.70;99.90;;;;;;10132789;29;20272;-84
2023/08/06 19:14:48;;;;;;;1.27;0.60;;;13.60;99.90;;;;;;10132648;29;20276;-84
2023/08/06 19:19:50;;;;;;;1.47;0.70;;;13.60;99.90;;;;;;10133377;29;20319;-84
2023/08/06 19:24:53;;;;;;;2.10;1.00;;;13.70;99.90;;;;;;10115132;29;20240;-84
2023/08/06 19:29:55;;;;;;;0.87;0.87;;;13.90;99.90;;;;;;10132909;29;20244;-84
2023/08/06 19:34:58;;;;;;;1.33;0.80;;;14.10;99.90;;;;;;10133153;29;20279;-84
2023/08/06 19:40:00;;;;;;;1.53;0.87;;;14.80;99.90;;;;;;10133322;29;20323;-83
2023/08/06 19:45:04;;;;;;;1.55;0.85;;;15.00;99.90;;;;;;10131716;29;20224;-83
2023/08/06 19:50:07;;;;;;;1.63;1.10;;;15.20;99.90;;;;;;10130602;29;20762;-83
2023/08/06 19:55:10;;;;;;;1.13;0.73;;;14.80;99.90;;;;;;10132450;29;20235;-83
2023/08/06 20:00:13;;;;;;;1.95;0.75;;;14.50;99.90;;;;;;10132635;29;20332;-83
2023/08/06 20:05:16;;;;;;;0.70;0.52;;;14.30;99.90;;;;;;10132988;29;20257;-83
2023/08/06 20:10:18;;;;;;;1.58;0.50;;;14.10;99.90;;;;;;10132223;29;20303;-83
2023/08/06 20:15:21;;;;;;;0.85;0.70;;;14.30;99.90;;;;;;10131885;29;20651;-83
2023/08/06 20:20:23;;;;;;;1.87;0.90;;;14.40;99.90;;;;;;10131527;29;20264;-84
2023/08/06 20:25:26;;;;;;;1.45;0.75;;;14.30;99.90;;;;;;10130866;29;20312;-84
2023/08/06 20:30:29;;;;;;;0.80;0.60;;;15.60;99.90;;;;;;10130288;29;20303;-84
2023/08/06 20:35:31;;;;;;;1.08;0.47;;;14.60;99.90;;;;;;10113502;29;20228;-84
2023/08/06 20:40:35;;;;;;;1.55;0.85;;;14.70;99.90;;;;;;10111877;29;20752;-83
2023/08/06 20:45:38;;;;;;;2.70;0.90;;;14.30;99.90;;;;;;10131193;29;20688;-84
2023/08/06 20:50:41;;;;;;;1.02;0.80;;;14.00;99.90;;;;;;10130210;29;20643;-84
2023/08/06 20:55:43;;;;;;;1.33;0.87;;;13.90;99.90;;;;;;10129922;29;20292;-84
2023/08/06 21:00:46;;;;;;;2.17;0.73;;;13.80;99.90;;;;;;10129479;29;20271;-84
2023/08/06 21:06:05;;;;;;;2.77;1.07;;;13.70;99.90;;;;;;10113490;29;20244;-84
2023/08/06 21:11:13;;;;;;;2.90;1.10;;;13.90;99.90;;;;;;10129596;29;20295;-84
2023/08/06 21:16:15;;;;;;;1.47;0.70;;;13.70;99.90;;;;;;10111190;29;20318;-84
2023/08/06 21:21:18;;;;;;;2.67;0.90;;;13.70;99.90;;;;;;10128685;29;20291;-84
2023/08/06 21:26:21;;;;;;;1.60;1.23;;;13.70;99.90;;;;;;10128609;29;20669;-84
2023/08/06 21:31:24;;;;;;;1.33;0.80;;;13.70;99.90;;;;;;10129321;29;20311;-84
2023/08/06 21:36:28;;;;;;;1.67;0.70;;;13.70;99.90;;;;;;10111029;29;20295;-84
2023/08/06 21:41:31;;;;;;;2.90;0.90;;;13.70;99.90;;;;;;10112864;29;20232;-84
2023/08/06 21:46:33;;;;;;;3.90;1.40;;;14.30;99.90;;;;;;10118173;29;20303;-84
2023/08/06 21:51:39;;;;;;;1.70;1.00;;;13.80;99.90;;;;;;10128101;29;20719;-84
2023/08/06 21:56:44;;;;;;;1.23;0.90;;;13.70;99.90;;;;;;10128487;29;20264;-84
2023/08/06 22:01:47;;;;;;;2.23;0.80;;;13.60;99.90;;;;;;10121810;29;20296;-84
2023/08/06 22:06:49;;;;;;;0.93;0.80;;;13.70;99.90;;;;;;10163969;29;20299;-84
2023/08/06 22:11:52;;;;;;;1.53;0.90;;;13.70;99.90;;;;;;10166940;29;20302;-83
2023/08/06 22:16:55;;;;;;;0.93;0.83;;;13.60;99.90;;;;;;10147136;29;20264;-83
2023/08/06 22:21:58;;;;;;;1.20;0.70;;;13.70;99.90;;;;;;10128481;29;20296;-83
2023/08/06 22:27:00;;;;;;;1.17;1.05;;;13.70;99.90;;;;;;10111429;29;20247;-83
2023/08/06 22:32:03;;;;;;;2.83;1.30;;;13.70;99.90;;;;;;10127414;29;20251;-83
2023/08/06 22:37:05;;;;;;;1.57;1.10;;;13.70;99.90;;;;;;10128126;29;20700;-83
2023/08/06 22:42:08;;;;;;;8.23;1.05;;;13.90;99.90;;;;;;10117363;29;20306;-83
2023/08/06 22:47:10;;;;;;;9.50;1.70;;;13.70;99.90;;;;;;10089578;29;20237;-83
2023/08/06 22:52:14;;;;;;;1.27;0.80;;;13.60;99.90;;;;;;10089517;29;20248;-83
2023/08/06 22:57:16;;;;;;;1.30;1.00;;;13.70;99.90;;;;;;10102421;29;20263;-82
2023/08/06 23:02:19;;;;;;;1.45;0.93;;;14.40;99.90;;;;;;10127328;29;20305;-83
2023/08/06 23:07:21;;;;;;;1.05;0.90;;;13.90;99.90;;;;;;10127940;29;20232;-83
2023/08/06 23:12:24;;;;;;;1.93;1.03;;;13.90;99.90;;;;;;10127285;29;20259;-83
2023/08/06 23:17:26;;;;;;;1.73;0.82;;;14.00;99.90;;;;;;10126450;29;20307;-83
2023/08/06 23:22:29;;;;;;;1.25;0.93;;;14.00;99.90;;;;;;10127097;29;20308;-83
2023/08/06 23:27:31;;;;;;;2.78;0.85;;;13.90;99.90;;;;;;10127308;29;20240;-83
2023/08/06 23:32:34;;;;;;;1.13;0.90;;;13.90;99.90;;;;;;10132235;29;20689;-83
2023/08/06 23:37:36;;;;;;;3.77;1.00;;;14.00;99.90;;;;;;10134706;29;20335;-83
2023/08/06 23:42:39;;;;;;;0.93;0.60;;;13.80;99.90;;;;;;10134559;29;20268;-83
2023/08/06 23:47:43;;;;;;;0.93;0.70;;;13.80;99.90;;;;;;10117097;29;20240;-83
2023/08/06 23:52:45;;;;;;;1.00;0.80;;;13.80;99.90;;;;;;10105378;29;20316;-83
2023/08/06 23:57:48;;;;;;;0.95;0.80;;;13.80;99.90;;;;;;10095162;29;20641;-83
